createdAt,value
2018-09-06T00:01:14.465Z,7.27
2018-09-06T00:03:43.965Z,6.83
2018-09-06T00:06:12.749Z,7.23
2018-09-06T00:08:42.379Z,6.47
2018-09-06T00:11:11.191Z,6.53
2018-09-06T00:13:40.339Z,7.37
2018-09-06T00:16:09.815Z,6.67
2018-09-06T00:18:39.424Z,6.77
2018-09-06T00:21:08.456Z,6.63
2018-09-06T00:23:38.583Z,7.37
2018-09-06T00:26:08.123Z,6.93
2018-09-06T00:28:37.885Z,6.90
2018-09-06T00:31:07.308Z,8.67
2018-09-06T00:33:37.327Z,7.17
2018-09-06T00:36:07.347Z,8.60
2018-09-06T00:38:36.645Z,7.03
2018-09-06T00:41:05.768Z,8.00
2018-09-06T00:43:34.626Z,9.07
2018-09-06T00:46:03.518Z,8.43
2018-09-06T00:48:32.651Z,7.40
2018-09-06T00:51:01.910Z,8.30
2018-09-06T00:53:30.667Z,7.30
2018-09-06T00:55:59.524Z,6.93
2018-09-06T00:58:29.027Z,8.00
2018-09-06T01:00:58.153Z,7.37
2018-09-06T01:03:27.319Z,7.43
2018-09-06T01:05:56.268Z,6.87
2018-09-06T01:08:25.071Z,6.80
2018-09-06T01:10:54.327Z,6.67
2018-09-06T01:13:23.719Z,7.33
2018-09-06T01:15:52.677Z,6.90
2018-09-06T01:18:22.370Z,7.27
2018-09-06T01:20:51.979Z,7.53
2018-09-06T01:23:21.521Z,7.77
2018-09-06T01:25:50.450Z,7.43
2018-09-06T01:28:20.597Z,7.30
2018-09-06T01:30:50.673Z,6.90
2018-09-06T01:33:20.190Z,7.47
2018-09-06T01:35:56.752Z,7.10
2018-09-06T01:38:26.169Z,7.97
2018-09-06T01:40:55.007Z,7.23
2018-09-06T01:43:23.939Z,7.97
2018-09-06T01:45:52.769Z,8.50
2018-09-06T01:48:21.750Z,8.63
2018-09-06T01:50:51.188Z,6.97
2018-09-06T01:53:20.259Z,7.47
2018-09-06T01:55:49.175Z,7.07
2018-09-06T01:58:18.647Z,7.70
2018-09-06T02:00:47.488Z,8.33
2018-09-06T02:03:16.359Z,8.77
2018-09-06T02:05:45.219Z,7.17
2018-09-06T02:08:14.000Z,7.40
2018-09-06T02:10:43.555Z,6.87
2018-09-06T02:13:12.419Z,8.60
2018-09-06T02:15:41.268Z,8.77
2018-09-06T02:18:10.694Z,6.93
2018-09-06T02:20:39.492Z,8.80
2018-09-06T02:23:09.164Z,8.97
2018-09-06T02:25:38.599Z,9.63
2018-09-06T02:28:08.105Z,9.47
2018-09-06T02:30:37.655Z,10.07
2018-09-06T02:33:07.022Z,8.17
2018-09-06T02:35:37.096Z,8.43
2018-09-06T02:38:07.128Z,8.20
2018-09-06T02:40:38.886Z,8.43
2018-09-06T02:43:10.324Z,8.73
2018-09-06T02:45:39.244Z,8.77
2018-09-06T02:48:08.518Z,8.77
2018-09-06T02:50:43.096Z,9.30
2018-09-06T02:53:14.977Z,8.90
2018-09-06T02:55:44.086Z,8.47
2018-09-06T02:58:13.640Z,9.10
2018-09-06T03:00:42.438Z,9.50
2018-09-06T03:03:11.289Z,9.87
2018-09-06T03:05:40.141Z,10.10
2018-09-06T03:08:09.529Z,9.73
2018-09-06T03:10:43.553Z,9.57
2018-09-06T03:13:12.334Z,9.63
2018-09-06T03:15:41.130Z,9.10
2018-09-06T03:18:10.532Z,9.37
2018-09-06T03:20:39.316Z,10.70
2018-09-06T03:23:09.543Z,9.60
2018-09-06T03:25:38.615Z,9.33
2018-09-06T03:28:07.950Z,9.70
2018-09-06T03:30:37.238Z,10.70
2018-09-06T03:33:06.436Z,10.27
2018-09-06T03:35:36.213Z,11.10
2018-09-06T03:38:05.728Z,10.13
2018-09-06T03:40:35.714Z,11.33
2018-09-06T03:43:04.702Z,10.97
2018-09-06T03:45:33.527Z,10.97
2018-09-06T03:48:02.408Z,11.20
2018-09-06T03:50:31.162Z,10.53
2018-09-06T03:53:00.044Z,11.90
2018-09-06T03:55:28.824Z,10.67
2018-09-06T03:57:58.811Z,11.63
2018-09-06T04:00:27.619Z,10.40
2018-09-06T04:02:56.563Z,12.13
2018-09-06T04:05:26.571Z,11.17
2018-09-06T04:07:55.968Z,11.40
2018-09-06T04:10:25.642Z,11.10
2018-09-06T04:12:54.477Z,12.43
2018-09-06T04:15:23.261Z,11.97
2018-09-06T04:17:52.755Z,12.57
2018-09-06T04:20:22.225Z,11.53
2018-09-06T04:22:52.909Z,12.70
2018-09-06T04:25:22.084Z,12.27
2018-09-06T04:27:51.028Z,12.73
2018-09-06T04:30:19.864Z,11.97
2018-09-06T04:32:48.683Z,12.57
2018-09-06T04:35:18.132Z,12.43
2018-09-06T04:37:47.534Z,12.30
2018-09-06T04:40:16.891Z,12.80
2018-09-06T04:42:45.736Z,12.40
2018-09-06T04:45:14.563Z,12.30
2018-09-06T04:47:43.434Z,12.27
2018-09-06T04:50:12.223Z,12.77
2018-09-06T04:52:41.530Z,14.60
2018-09-06T04:55:10.399Z,12.27
2018-09-06T04:57:40.144Z,13.27
2018-09-06T05:00:09.034Z,13.40
2018-09-06T05:02:41.336Z,14.17
2018-09-06T05:05:10.619Z,13.90
2018-09-06T05:07:39.451Z,13.60
2018-09-06T05:10:09.055Z,13.07
2018-09-06T05:12:38.204Z,14.27
2018-09-06T05:15:07.782Z,14.80
2018-09-06T05:17:37.773Z,13.47
2018-09-06T05:20:07.592Z,14.10
2018-09-06T05:22:37.680Z,13.63
2018-09-06T05:25:07.288Z,15.47
2018-09-06T05:27:50.843Z,14.80
2018-09-06T05:30:19.678Z,16.03
2018-09-06T05:32:48.594Z,13.37
2018-09-06T05:35:18.369Z,17.33
2018-09-06T05:37:48.163Z,15.20
2018-09-06T05:40:17.437Z,15.30
2018-09-06T05:42:47.057Z,15.47
2018-09-06T05:45:15.853Z,17.27
2018-09-06T05:47:47.745Z,16.03
2018-09-06T05:50:16.658Z,18.70
2018-09-06T05:52:45.494Z,17.87
2018-09-06T05:55:14.324Z,16.90
2018-09-06T05:57:43.738Z,18.50
2018-09-06T06:00:17.744Z,18.13
2018-09-06T06:02:47.538Z,18.67
2018-09-06T06:05:17.055Z,17.23
2018-09-06T06:07:57.538Z,17.00
2018-09-06T06:10:28.067Z,16.73
2018-09-06T06:12:57.093Z,16.20
2018-09-06T06:15:25.984Z,15.00
2018-09-06T06:17:55.744Z,15.97
2018-09-06T06:20:24.591Z,16.13
2018-09-06T06:22:53.981Z,14.50
2018-09-06T06:25:22.810Z,18.17
2018-09-06T06:27:51.843Z,17.67
2018-09-06T06:30:20.983Z,16.33
2018-09-06T06:32:49.859Z,20.03
2018-09-06T06:35:19.660Z,15.37
2018-09-06T06:37:48.890Z,17.43
2018-09-06T06:40:18.275Z,16.47
2018-09-06T06:42:47.199Z,14.83
2018-09-06T06:45:46.792Z,15.57
2018-09-06T06:48:15.574Z,14.07
2018-09-06T06:50:44.532Z,12.80
2018-09-06T06:53:13.348Z,13.23
2018-09-06T06:55:42.242Z,13.13
2018-09-06T06:58:11.706Z,12.67
2018-09-06T07:00:42.392Z,14.03
2018-09-06T07:03:12.683Z,12.30
2018-09-06T07:05:42.025Z,13.83
2018-09-06T07:08:11.460Z,13.30
2018-09-06T07:10:41.083Z,13.07
2018-09-06T07:13:10.153Z,12.67
2018-09-06T07:15:38.915Z,13.97
2018-09-06T07:18:09.334Z,12.70
2018-09-06T07:20:38.642Z,12.40
2018-09-06T07:23:08.985Z,12.63
2018-09-06T07:25:38.291Z,13.10
2018-09-06T07:28:07.894Z,12.33
2018-09-06T07:30:37.197Z,11.83
2018-09-06T07:33:06.559Z,11.83
2018-09-06T07:35:36.189Z,14.13
2018-09-06T07:38:06.030Z,12.03
2018-09-06T07:40:37.394Z,12.77
2018-09-06T07:43:06.842Z,11.40
2018-09-06T07:45:36.129Z,13.13
2018-09-06T07:48:05.073Z,12.03
2018-09-06T07:50:33.901Z,12.30
2018-09-06T07:53:02.787Z,12.10
2018-09-06T07:55:31.569Z,11.97
2018-09-06T07:58:01.300Z,11.73
2018-09-06T08:00:30.145Z,12.33
2018-09-06T08:02:58.960Z,11.27
2018-09-06T08:05:27.887Z,12.13
2018-09-06T08:07:56.705Z,10.77
2018-09-06T08:10:26.092Z,12.10
2018-09-06T08:12:54.841Z,10.80
2018-09-06T08:15:23.698Z,11.27
2018-09-06T08:17:53.221Z,10.80
2018-09-06T08:20:22.210Z,10.67
2018-09-06T08:22:51.950Z,10.20
2018-09-06T08:25:21.045Z,10.90
2018-09-06T08:27:49.827Z,10.43
2018-09-06T08:30:18.673Z,11.73
2018-09-06T08:32:47.483Z,11.07
2018-09-06T08:35:17.044Z,10.43
2018-09-06T08:37:46.527Z,10.97
2018-09-06T08:40:16.104Z,11.50
2018-09-06T08:42:45.941Z,10.50
2018-09-06T08:45:14.797Z,9.47
2018-09-06T08:47:43.663Z,10.33
2018-09-06T08:50:12.423Z,9.50
2018-09-06T08:52:41.355Z,8.83
2018-09-06T08:55:11.016Z,9.17
2018-09-06T08:57:40.545Z,8.63
2018-09-06T09:00:09.352Z,10.20
2018-09-06T09:02:38.942Z,9.40
2018-09-06T09:05:08.347Z,8.47
2018-09-06T09:07:37.679Z,9.20
2018-09-06T09:10:08.069Z,8.57
2018-09-06T09:12:37.433Z,7.97
2018-09-06T09:15:07.512Z,8.53
2018-09-06T09:17:38.176Z,8.30
2018-09-06T09:20:07.849Z,8.37
2018-09-06T09:22:38.136Z,8.33
2018-09-06T09:25:07.989Z,8.03
2018-09-06T09:27:37.396Z,8.07
2018-09-06T09:30:06.708Z,8.27
2018-09-06T09:32:35.921Z,8.03
2018-09-06T09:35:05.799Z,8.03
2018-09-06T09:37:36.300Z,7.53
2018-09-06T09:40:06.347Z,7.33
2018-09-06T09:42:35.868Z,7.50
2018-09-06T09:48:10.267Z,8.17
2018-09-06T09:53:08.329Z,7.27
2018-09-06T09:55:37.628Z,6.83
2018-09-06T09:58:08.529Z,6.30
2018-09-06T10:00:39.718Z,6.50
2018-09-06T10:03:13.779Z,6.67
2018-09-06T10:05:47.763Z,6.10
2018-09-06T10:08:21.828Z,6.23
2018-09-06T10:10:52.532Z,6.03
2018-09-06T10:13:21.638Z,6.83
2018-09-06T10:15:50.633Z,6.07
2018-09-06T10:18:20.621Z,5.97
2018-09-06T10:20:49.694Z,8.70
2018-09-06T10:23:19.056Z,5.57
2018-09-06T10:25:48.042Z,5.00
2018-09-06T10:28:17.022Z,5.93
2018-09-06T10:30:45.926Z,4.97
2018-09-06T10:33:14.733Z,5.10
2018-09-06T10:35:44.840Z,4.90
2018-09-06T10:38:13.789Z,6.83
2018-09-06T10:40:43.163Z,7.37
2018-09-06T10:43:12.051Z,5.93
2018-09-06T10:45:41.071Z,4.83
2018-09-06T10:48:09.879Z,4.90
2018-09-06T10:50:39.213Z,5.17
2018-09-06T10:53:09.694Z,8.67
2018-09-06T10:55:38.460Z,5.93
2018-09-06T10:58:08.327Z,5.43
2018-09-06T11:00:37.705Z,5.00
2018-09-06T11:03:07.840Z,4.77
2018-09-06T11:05:37.227Z,4.63
2018-09-06T11:08:07.731Z,6.17
2018-09-06T11:10:52.195Z,4.43
2018-09-06T11:13:21.305Z,5.00
2018-09-06T11:15:50.383Z,4.43
2018-09-06T11:18:20.038Z,6.37
2018-09-06T11:20:49.040Z,5.17
2018-09-06T11:23:18.541Z,6.40
2018-09-06T11:25:47.444Z,6.07
2018-09-06T11:28:16.253Z,5.27
2018-09-06T11:30:45.205Z,5.07
2018-09-06T11:33:14.171Z,5.53
2018-09-06T11:35:43.795Z,6.73
2018-09-06T11:41:11.961Z,5.00
2018-09-06T11:43:40.777Z,5.27
2018-09-06T11:46:10.076Z,5.53
2018-09-06T11:48:38.916Z,5.03
2018-09-06T11:51:08.955Z,5.80
2018-09-06T11:53:38.820Z,5.20
2018-09-06T11:56:08.284Z,8.10
2018-09-06T11:58:38.471Z,5.63
2018-09-06T12:01:08.011Z,4.30
2018-09-06T12:03:37.553Z,6.10
2018-09-06T12:06:06.915Z,5.07
2018-09-06T12:08:37.585Z,5.93
2018-09-06T12:11:06.953Z,5.47
2018-09-06T12:13:36.052Z,5.40
2018-09-06T12:16:05.847Z,5.03
2018-09-06T12:18:34.670Z,4.90
2018-09-06T12:21:03.511Z,4.57
2018-09-06T12:23:33.036Z,5.90
2018-09-06T12:26:01.872Z,4.80
2018-09-06T12:28:30.758Z,5.93
2018-09-06T12:30:59.597Z,6.53
2018-09-06T12:33:28.590Z,4.77
2018-09-06T12:35:58.304Z,4.97
2018-09-06T12:38:27.201Z,5.00
2018-09-06T12:40:56.009Z,4.70
2018-09-06T12:43:25.537Z,7.57
2018-09-06T12:45:54.998Z,5.67
2018-09-06T12:48:23.829Z,5.67
2018-09-06T12:50:52.632Z,5.63
2018-09-06T12:53:21.533Z,4.80
2018-09-06T12:55:50.405Z,5.83
2018-09-06T12:58:19.906Z,5.23
2018-09-06T13:00:48.793Z,7.00
2018-09-06T13:03:17.795Z,4.93
2018-09-06T13:05:47.435Z,5.63
2018-09-06T13:08:16.444Z,4.73
2018-09-06T13:10:45.790Z,5.30
2018-09-06T13:13:14.630Z,5.40
2018-09-06T13:15:43.461Z,4.93
2018-09-06T13:18:12.720Z,5.17
2018-09-06T13:20:41.612Z,5.73
2018-09-06T13:23:11.855Z,5.20
2018-09-06T13:25:40.713Z,5.60
2018-09-06T13:28:09.769Z,4.90
2018-09-06T13:30:38.571Z,5.67
2018-09-06T13:33:08.228Z,4.80
2018-09-06T13:35:39.093Z,4.87
2018-09-06T13:38:08.276Z,5.10
2018-09-06T13:40:37.469Z,5.37
2018-09-06T13:43:07.434Z,4.97
2018-09-06T13:45:37.367Z,5.67
2018-09-06T13:48:06.356Z,5.07
2018-09-06T13:50:35.506Z,5.47
2018-09-06T13:53:04.275Z,4.80
2018-09-06T13:55:33.672Z,6.37
2018-09-06T13:58:03.060Z,5.70
2018-09-06T14:00:31.863Z,5.73
2018-09-06T14:03:00.694Z,5.10
2018-09-06T14:05:30.461Z,6.50
2018-09-06T14:07:59.243Z,5.23
2018-09-06T14:10:28.521Z,5.97
2018-09-06T14:12:57.917Z,5.97
2018-09-06T14:15:26.685Z,5.60
2018-09-06T14:17:55.943Z,6.63
2018-09-06T14:20:24.727Z,5.33
2018-09-06T14:22:54.268Z,6.43
2018-09-06T14:25:23.033Z,5.67
2018-09-06T14:27:51.931Z,5.03
2018-09-06T14:30:20.735Z,5.77
2018-09-06T14:32:49.492Z,6.03
2018-09-06T14:35:18.819Z,6.50
2018-09-06T14:37:48.290Z,5.43
2018-09-06T14:40:18.501Z,6.17
2018-09-06T14:42:48.455Z,5.63
2018-09-06T14:45:17.567Z,6.20
2018-09-06T14:47:46.896Z,6.20
2018-09-06T14:50:15.925Z,5.77
2018-09-06T14:52:45.713Z,5.03
2018-09-06T14:55:14.827Z,5.87
2018-09-06T14:57:44.540Z,6.30
2018-09-06T15:00:16.423Z,5.57
2018-09-06T15:02:45.442Z,5.33
2018-09-06T15:05:15.024Z,5.30
2018-09-06T15:07:43.810Z,7.90
2018-09-06T15:10:12.991Z,6.10
2018-09-06T15:12:41.774Z,5.50
2018-09-06T15:15:10.776Z,5.67
2018-09-06T15:17:40.234Z,5.23
2018-09-06T15:20:09.129Z,10.63
2018-09-06T15:22:40.090Z,6.27
2018-09-06T15:25:09.381Z,5.50
2018-09-06T15:27:39.301Z,5.40
2018-09-06T15:30:08.279Z,6.73
2018-09-06T15:32:37.376Z,5.30
2018-09-06T15:35:06.890Z,6.13
2018-09-06T15:37:36.558Z,5.77
2018-09-06T15:40:05.759Z,6.03
2018-09-06T15:42:35.536Z,5.73
2018-09-06T15:45:04.610Z,6.10
2018-09-06T15:47:33.416Z,6.50
2018-09-06T15:50:02.352Z,6.70
2018-09-06T15:52:31.179Z,4.90
2018-09-06T15:55:00.031Z,6.57
2018-09-06T15:57:29.447Z,4.90
2018-09-06T15:59:58.164Z,6.63
2018-09-06T16:02:27.390Z,6.83
2018-09-06T16:04:56.120Z,5.83
2018-09-06T16:07:24.888Z,6.33
2018-09-06T16:09:54.412Z,5.30
2018-09-06T16:12:23.196Z,6.03
2018-09-06T16:14:51.971Z,5.93
2018-09-06T16:17:21.406Z,5.83
2018-09-06T16:19:50.284Z,5.10
2018-09-06T16:22:19.932Z,5.33
2018-09-06T16:24:49.327Z,5.17
2018-09-06T16:27:18.068Z,5.20
2018-09-06T16:29:47.496Z,4.77
2018-09-06T16:32:16.402Z,5.67
2018-09-06T16:34:46.700Z,4.43
2018-09-06T16:37:16.264Z,5.77
2018-09-06T16:39:44.927Z,5.17
2018-09-06T16:42:14.422Z,5.07
2018-09-06T16:44:43.176Z,5.00
2018-09-06T16:47:12.656Z,4.77
2018-09-06T16:49:41.472Z,5.17
2018-09-06T16:52:10.912Z,4.50
2018-09-06T16:54:39.700Z,5.33
2018-09-06T16:57:09.747Z,5.20
2018-09-06T16:59:38.561Z,5.10
2018-09-06T17:02:08.854Z,4.80
2018-09-06T17:04:37.853Z,5.03
2018-09-06T17:07:07.227Z,5.23
2018-09-06T17:09:36.763Z,5.20
2018-09-06T17:12:06.092Z,6.27
2018-09-06T17:14:35.519Z,5.63
2018-09-06T17:17:05.507Z,5.70
2018-09-06T17:19:34.342Z,5.97
2018-09-06T17:22:03.633Z,4.83
2018-09-06T17:24:33.027Z,5.40
2018-09-06T17:27:01.783Z,5.40
2018-09-06T17:29:30.520Z,5.37
2018-09-06T17:31:59.996Z,6.70
2018-09-06T17:34:29.206Z,5.13
2018-09-06T17:36:58.555Z,5.23
2018-09-06T17:39:27.719Z,5.63
2018-09-06T17:41:57.068Z,6.87
2018-09-06T17:44:26.093Z,5.93
2018-09-06T17:46:54.916Z,5.90
2018-09-06T17:49:23.947Z,6.10
2018-09-06T17:51:52.692Z,6.23
2018-09-06T17:54:21.585Z,5.73
2018-09-06T17:56:50.361Z,6.67
2018-09-06T17:59:20.779Z,7.90
2018-09-06T18:01:49.644Z,6.07
2018-09-06T18:04:19.527Z,6.07
2018-09-06T18:06:48.324Z,6.13
2018-09-06T18:09:18.471Z,5.60
2018-09-06T18:11:47.393Z,6.30
2018-09-06T18:14:16.469Z,5.97
2018-09-06T18:16:45.963Z,6.53
2018-09-06T18:19:14.744Z,5.87
2018-09-06T18:21:43.525Z,6.37
2018-09-06T18:24:13.064Z,6.17
2018-09-06T18:26:41.935Z,7.17
2018-09-06T18:29:10.714Z,5.47
2018-09-06T18:31:40.094Z,7.30
2018-09-06T18:34:09.328Z,6.27
2018-09-06T18:36:38.800Z,7.73
2018-09-06T18:39:08.073Z,6.00
2018-09-06T18:41:37.614Z,7.30
2018-09-06T18:44:06.894Z,6.63
2018-09-06T18:46:35.671Z,7.63
2018-09-06T18:49:04.543Z,6.80
2018-09-06T18:51:33.889Z,8.00
2018-09-06T18:54:02.643Z,7.87
2018-09-06T18:56:31.401Z,8.40
2018-09-06T18:59:00.674Z,7.13
2018-09-06T19:01:29.564Z,7.53
2018-09-06T19:03:58.936Z,9.47
2018-09-06T19:06:27.733Z,7.33
2018-09-06T19:08:57.355Z,7.47
2018-09-06T19:11:26.172Z,8.07
2018-09-06T19:13:54.921Z,7.53
2018-09-06T19:16:24.296Z,7.33
2018-09-06T19:18:53.058Z,9.67
2018-09-06T19:21:21.817Z,7.37
2018-09-06T19:23:51.603Z,8.50
2018-09-06T19:26:20.439Z,6.93
2018-09-06T19:28:49.428Z,7.50
2018-09-06T19:31:18.311Z,6.53
2018-09-06T19:33:48.379Z,8.03
2018-09-06T19:36:17.812Z,8.20
2018-09-06T19:38:48.104Z,7.17
2018-09-06T19:41:17.854Z,7.23
2018-09-06T19:43:47.477Z,7.13
2018-09-06T19:46:16.778Z,7.17
2018-09-06T19:48:45.634Z,6.97
2018-09-06T19:51:14.484Z,7.03
2018-09-06T19:53:43.350Z,6.47
2018-09-06T19:56:12.322Z,7.37
2018-09-06T19:58:41.858Z,7.57
2018-09-06T20:01:10.616Z,8.07
2018-09-06T20:03:40.176Z,7.13
2018-09-06T20:06:08.513Z,8.83
2018-09-06T20:08:39.366Z,9.30
2018-09-06T20:11:08.188Z,8.37
2018-09-06T20:13:37.335Z,7.70
2018-09-06T20:16:07.251Z,8.30
2018-09-06T20:18:36.171Z,7.50
2018-09-06T20:21:05.066Z,8.20
2018-09-06T20:23:34.579Z,7.60
2018-09-06T20:26:03.376Z,8.03
2018-09-06T20:28:32.673Z,8.13
2018-09-06T20:31:01.440Z,10.83
2018-09-06T20:33:30.205Z,7.80
2018-09-06T20:35:59.600Z,8.67
2018-09-06T20:38:29.000Z,8.70
2018-09-06T20:40:57.731Z,9.10
2018-09-06T20:43:26.998Z,9.17
2018-09-06T20:45:55.935Z,8.93
2018-09-06T20:48:24.777Z,9.40
2018-09-06T20:50:53.613Z,10.03
2018-09-06T20:53:22.422Z,9.40
2018-09-06T20:55:51.473Z,9.93
2018-09-06T20:58:21.011Z,9.43
2018-09-06T21:00:50.102Z,9.50
2018-09-06T21:03:19.884Z,10.57
2018-09-06T21:05:48.779Z,11.27
2018-09-06T21:08:17.527Z,10.67
2018-09-06T21:10:47.106Z,9.50
2018-09-06T21:13:15.932Z,12.40
2018-09-06T21:15:44.972Z,10.33
2018-09-06T21:18:14.307Z,10.63
2018-09-06T21:20:43.177Z,11.17
2018-09-06T21:23:12.913Z,10.87
2018-09-06T21:25:41.880Z,11.50
2018-09-06T21:28:10.741Z,11.40
2018-09-06T21:30:39.567Z,11.23
2018-09-06T21:33:08.342Z,11.57
2018-09-06T21:35:38.097Z,10.97
2018-09-06T21:38:07.172Z,11.83
2018-09-06T21:40:37.020Z,12.93
2018-09-06T21:43:07.167Z,12.10
2018-09-06T21:45:35.985Z,13.07
2018-09-06T21:48:05.015Z,14.70
2018-09-06T21:50:33.811Z,12.93
2018-09-06T21:53:02.573Z,14.63
2018-09-06T21:55:31.483Z,14.13
2018-09-06T21:58:01.110Z,15.23
2018-09-06T22:00:29.985Z,13.00
2018-09-06T22:03:05.392Z,14.83
2018-09-06T22:05:34.310Z,13.67
2018-09-06T22:08:03.131Z,14.00
2018-09-06T22:10:32.501Z,13.40
2018-09-06T22:14:04.542Z,15.07
2018-09-06T22:16:34.025Z,13.87
2018-09-06T22:19:03.098Z,14.27
2018-09-06T22:21:31.869Z,14.47
2018-09-06T22:26:40.814Z,13.83
2018-09-06T22:29:10.798Z,14.67
2018-09-06T22:31:40.355Z,16.23
2018-09-06T22:34:09.688Z,16.33
2018-09-06T22:36:38.954Z,16.97
2018-09-06T22:39:10.499Z,15.13
2018-09-06T22:41:39.805Z,15.37
2018-09-06T22:44:08.615Z,17.77
2018-09-06T22:46:37.655Z,16.00
2018-09-06T22:49:06.987Z,18.67
2018-09-06T22:51:35.984Z,17.63
2018-09-06T22:54:05.676Z,17.90
2018-09-06T22:56:34.528Z,17.17
2018-09-06T22:59:04.454Z,18.60
2018-09-06T23:01:33.232Z,20.03
2018-09-06T23:04:02.809Z,19.87
2018-09-06T23:06:31.632Z,20.43
2018-09-06T23:09:00.916Z,18.47
2018-09-06T23:11:29.679Z,17.93
2018-09-06T23:13:58.536Z,21.63
2018-09-06T23:16:28.305Z,17.63
2018-09-06T23:18:57.023Z,15.13
2018-09-06T23:21:25.853Z,18.93
2018-09-06T23:23:55.346Z,19.93
2018-09-06T23:26:32.984Z,16.00
2018-09-06T23:29:01.822Z,17.37
2018-09-06T23:31:31.323Z,18.47
2018-09-06T23:34:00.942Z,18.20
2018-09-06T23:36:30.541Z,22.63
2018-09-06T23:38:59.547Z,19.83
2018-09-06T23:41:30.682Z,20.53
2018-09-06T23:43:59.434Z,23.27
2018-09-06T23:46:28.214Z,20.83
2018-09-06T23:48:57.038Z,24.27
2018-09-06T23:51:25.806Z,19.57
2018-09-06T23:53:54.667Z,19.20
2018-09-06T23:56:23.499Z,20.97
2018-09-06T23:58:55.000Z,22.97
